Latest Weather Observations for Redesdale

IDV60801

Issued at 9:32 am EST Sunday 24 June 2018 (issued every 10 minutes, with the page automatically refreshed every 10 minutes)

About weather observations | Map of weather stations | Latest weather observations for VIC | Other Formats
Station Details ID: 088051 Name: REDESDALE Lat: -37.02 Lon: 144.52 Height: 290.0 m
Data from the previous 72 hours. | See also: Recent months at Redesdale
Date/Time
EST
Temp
°C
App
Temp
°C
Dew
Point
°C
Rel
Hum
%
Delta-T
°C
Wind Press
QNH
hPa
Press
MSL
hPa
Rain since
9am
mm
Dir  Spd
km/h
Gust
km/h
Spd
kts
Gust
kts
24/09:30am 8.3 6.4 5.1 80 1.5 SW 4 6 2 3 - - 0.0
24/09:00am 4.8 3.1 3.8 93 0.4 SW 2 4 1 2 - - 0.2
24/08:30am 2.5 0.4 1.8 95 0.3 SSW 2 4 1 2 - - 0.0
24/08:00am 1.0 -1.3 0.3 95 0.3 SSW 2 4 1 2 - - 0.0
24/07:30am 0.0 -2.1 -0.8 94 0.3 CALM 0 2 0 1 - - 0.0
24/07:00am 0.4 -2.8 -0.6 93 0.4 SSW 6 7 3 4 - - 0.0
24/06:30am 1.4 -0.9 0.4 93 0.4 SSW 2 4 1 2 - - 0.0
24/06:00am 0.8 -2.0 -0.6 90 0.5 SSW 4 4 2 2 - - 0.0
24/05:30am 1.8 -1.4 0.5 91 0.5 SSW 7 7 4 4 - - 0.0
24/05:00am 2.2 -0.9 0.4 88 0.7 SSW 6 7 3 4 - - 0.0
24/04:30am 2.3 -0.8 0.4 87 0.7 SW 6 7 3 4 - - 0.0
24/04:00am 3.1 0.1 0.5 83 1.0 SW 6 7 3 4 - - 0.0
24/03:30am 4.3 1.2 1.3 81 1.2 SW 7 9 4 5 - - 0.0
24/03:00am 5.7 2.4 2.2 78 1.4 SW 9 11 5 6 - - 0.0
24/02:30am 6.7 3.5 3.0 77 1.6 SW 9 17 5 9 - - 0.0
24/02:00am 7.0 4.3 3.6 79 1.5 SSW 7 11 4 6 - - 0.0
24/01:30am 6.6 4.1 3.6 81 1.3 SSW 6 9 3 5 - - 0.0
24/01:00am 7.2 3.8 3.8 79 1.5 SSW 11 15 6 8 - - 0.0
24/12:30am 7.3 4.9 5.1 86 1.0 SSW 7 9 4 5 - - 0.0
24/12:00am 7.3 5.1 6.2 93 0.5 SSW 7 13 4 7 - - 0.0
 
Date/Time
EST
Temp
°C
App
Temp
°C
Dew
Point
°C
Rel
Hum
%
Delta-T
°C
Wind Press
QNH
hPa
Press
MSL
hPa
Rain since
9am
mm
Dir  Spd
km/h
Gust
km/h
Spd
kts
Gust
kts
23/11:30pm 6.7 4.5 6.4 98 0.1 SW 7 9 4 5 - - 0.0
23/11:00pm 5.6 3.4 5.3 98 0.1 SSW 6 7 3 4 - - 0.0
23/10:30pm 4.8 2.4 4.5 98 0.1 SSW 6 7 3 4 - - 0.0
23/10:00pm 3.8 1.2 3.2 96 0.2 SSW 6 7 3 4 - - 0.0
23/09:30pm 5.4 2.9 5.0 97 0.2 SSW 7 9 4 5 - - 0.0
23/09:00pm 5.2 2.9 4.8 97 0.2 SSW 6 7 3 4 - - 0.0
23/08:30pm 4.2 2.0 3.3 94 0.4 SW 4 6 2 3 - - 0.0
23/08:00pm 5.4 2.8 4.4 93 0.4 SSW 7 9 4 5 - - 0.0
23/07:30pm 5.7 3.6 4.0 89 0.7 SW 4 6 2 3 - - 0.0
23/07:00pm 7.0 5.5 4.8 86 1.0 WSW 2 4 1 2 - - 0.0
23/06:30pm 7.6 5.6 4.4 80 1.4 WSW 4 6 2 3 - - 0.0
23/06:00pm 9.0 7.2 5.6 79 1.6 W 4 7 2 4 - - 0.0
23/05:30pm 9.2 7.7 5.2 76 1.8 W 2 6 1 3 - - 0.0
23/05:00pm 9.5 7.1 5.1 74 2.0 W 7 11 4 6 - - 0.0
23/04:30pm 10.5 8.7 5.3 70 2.4 W 4 7 2 4 - - 0.0
23/04:00pm 11.3 9.0 5.0 65 2.9 SW 6 11 3 6 - - 0.0
23/03:30pm 11.8 9.5 4.8 62 3.2 WSW 6 11 3 6 - - 0.0
23/03:00pm 11.5 9.1 4.5 62 3.2 W 6 11 3 6 - - 0.0
23/02:30pm 11.4 8.4 3.9 60 3.4 WSW 9 15 5 8 - - 0.0
23/02:00pm 12.2 9.6 4.4 59 3.6 W 7 13 4 7 - - 0.0
23/01:30pm 12.1 10.0 5.7 65 3.0 WSW 6 9 3 5 - - 0.0
23/01:00pm 12.2 10.1 6.7 69 2.7 NNW 7 11 4 6 - - 0.0
23/12:30pm 10.4 8.3 6.0 74 2.1 NNW 6 9 3 5 - - 0.0
23/12:00pm 8.9 7.7 6.3 84 1.2 NNE 2 6 1 3 - - 0.0
23/11:30am 8.0 6.4 6.5 90 0.7 SW 4 6 2 3 - - 0.0
23/11:00am 7.2 6.0 6.5 95 0.3 S 2 4 1 2 - - 0.0
23/10:30am 6.2 5.3 5.9 98 0.1 CALM 0 0 0 0 - - 0.0
23/10:00am 5.3 3.8 5.2 99 0.0 S 2 4 1 2 - - 0.0
23/09:30am 5.0 3.5 4.9 99 0.0 SSW 2 4 1 2 - - 0.0
23/09:00am 2.8 0.5 2.7 99 0.0 SSW 4 6 2 3 - - 0.2
23/08:30am 0.9 -1.7 0.8 99 0.0 SSW 4 6 2 3 - - 0.0
23/08:00am -0.2 -3.4 -0.3 99 0.0 SSW 6 7 3 4 - - 0.0
23/07:30am -1.2 -4.5 -1.3 99 0.0 SSW 6 7 3 4 - - 0.0
23/07:00am -0.8 -4.1 -0.9 99 0.0 S 6 7 3 4 - - 0.0
23/06:30am -0.6 -3.8 -0.7 99 0.0 SSW 6 7 3 4 - - 0.0
23/06:00am -0.4 -3.6 -0.5 99 0.0 SSW 6 7 3 4 - - 0.0
23/05:30am -0.4 -3.6 -0.7 98 0.1 S 6 7 3 4 - - 0.0
23/05:00am 0.7 -2.3 0.6 99 0.0 SSW 6 7 3 4 - - 0.0
23/04:30am 1.3 -1.3 1.2 99 0.0 S 4 6 2 3 - - 0.0
23/04:00am 2.1 -0.7 2.0 99 0.0 S 6 6 3 3 - - 0.0
23/03:30am 2.1 -0.7 2.0 99 0.0 S 6 6 3 3 - - 0.0
23/03:00am 1.4 -1.5 1.3 99 0.0 SSW 6 7 3 4 - - 0.0
23/02:30am 0.8 -2.2 0.5 98 0.1 SSW 6 7 3 4 - - 0.0
23/02:00am 1.0 -2.0 0.9 99 0.0 S 6 7 3 4 - - 0.0
23/01:30am 1.1 -1.9 1.0 99 0.0 SSW 6 7 3 4 - - 0.0
23/01:00am 0.3 -3.0 0.0 98 0.1 SSW 7 7 4 4 - - 0.0
23/12:30am 0.3 -2.8 0.0 98 0.1 SSW 6 6 3 3 - - 0.0
23/12:00am 0.5 -2.6 0.2 98 0.1 S 6 7 3 4 - - 0.0
 
Date/Time
EST
Temp
°C
App
Temp
°C
Dew
Point
°C
Rel
Hum
%
Delta-T
°C
Wind Press
QNH
hPa
Press
MSL
hPa
Rain since
9am
mm
Dir  Spd
km/h
Gust
km/h
Spd
kts
Gust
kts
22/11:30pm 1.0 -2.0 0.7 98 0.1 SSW 6 6 3 3 - - 0.0
22/11:00pm 0.8 -2.2 0.5 98 0.1 SSW 6 7 3 4 - - 0.0
22/10:30pm 1.2 -1.8 0.8 97 0.2 SSW 6 6 3 3 - - 0.0
22/10:00pm 1.3 -1.7 0.9 97 0.2 SSW 6 7 3 4 - - 0.0
22/09:30pm 1.3 -1.3 0.7 96 0.2 SW 4 6 2 3 - - 0.0
22/09:00pm 2.1 -0.4 1.4 95 0.3 SW 4 6 2 3 - - 0.0
22/08:30pm 3.4 1.1 2.5 94 0.4 W 4 4 2 2 - - 0.0
22/08:00pm 3.8 1.9 2.6 92 0.5 W 2 4 1 2 - - 0.0
22/07:30pm 4.2 2.7 2.9 91 0.5 CALM 0 0 0 0 - - 0.0
22/07:00pm 4.0 2.1 2.7 91 0.5 W 2 4 1 2 - - 0.0
22/06:30pm 4.3 2.0 2.5 88 0.7 NW 4 4 2 2 - - 0.0
22/06:00pm 6.9 5.1 3.7 80 1.4 NW 2 2 1 1 - - 0.0
22/05:30pm 8.1 6.4 3.8 74 1.9 NW 2 4 1 2 - - 0.0
22/05:00pm 9.8 8.1 3.8 66 2.7 NW 2 4 1 2 - - 0.0
22/04:30pm 11.4 8.9 3.9 60 3.4 NW 6 9 3 5 - - 0.0
22/04:00pm 11.8 8.3 3.3 56 3.8 NW 11 15 6 8 - - 0.0
22/03:30pm 13.1 10.5 4.3 55 4.1 WNW 7 13 4 7 - - 0.0
22/03:00pm 11.8 10.2 4.3 60 3.4 NNE 2 7 1 4 - - 0.0
22/02:30pm 10.6 8.9 4.1 64 2.9 NNE 2 4 1 2 - - 0.0
22/02:00pm 10.7 8.6 4.0 63 3.0 N 4 6 2 3 - - 0.0
22/01:30pm 13.1 10.9 5.3 59 3.7 N 6 13 3 7 - - 0.0
22/01:00pm 12.5 10.3 5.2 61 3.4 N 6 11 3 6 - - 0.0
22/12:30pm 11.6 9.2 4.3 61 3.3 NNE 6 11 3 6 - - 0.0
22/12:00pm 11.0 8.6 4.2 63 3.1 N 6 9 3 5 - - 0.0
22/11:30am 10.4 8.0 4.3 66 2.8 N 6 7 3 4 - - 0.0
22/11:00am 10.1 8.2 4.9 70 2.4 N 4 7 2 4 - - 0.0
22/10:30am 9.6 7.8 5.2 74 2.0 S 4 6 2 3 - - 0.0
22/10:00am 8.5 7.6 6.0 84 1.2 CALM 0 2 0 1 - - 0.0
22/09:30am 5.8 4.0 5.4 97 0.2 S 4 4 2 2 - - 0.0
22/09:00am 3.4 1.6 3.3 99 0.0 SSW 2 6 1 3 - - 0.2
22/08:30am 0.8 -2.4 0.7 99 0.0 SSW 7 9 4 5 - - 0.2
22/08:00am -0.1 -3.3 -0.4 98 0.1 SSW 6 6 3 3 - - 0.2
22/07:30am -0.5 -3.4 -0.8 98 0.1 SSW 4 6 2 3 - - 0.2
22/07:00am -0.7 -3.6 -1.0 98 0.1 SSW 4 6 2 3 - - 0.2
22/06:30am -0.2 -3.6 -0.5 98 0.1 S 7 9 4 5 - - 0.2
22/06:00am -0.5 -3.7 -0.8 98 0.1 SSW 6 7 3 4 - - 0.2
22/05:30am -0.3 -3.7 -0.7 97 0.1 SSW 7 9 4 5 - - 0.2
22/05:00am 0.0 -3.4 -0.4 97 0.1 SSW 7 9 4 5 - - 0.2
22/04:30am -0.1 -2.5 -0.5 97 0.1 SSW 2 6 1 3 - - 0.2
22/04:00am 0.6 -2.7 0.2 97 0.1 SSW 7 9 4 5 - - 0.2
22/03:30am 0.5 -3.2 0.1 97 0.1 SSW 9 11 5 6 - - 0.2
22/03:00am 0.5 -2.6 0.1 97 0.1 SSW 6 9 3 5 - - 0.2
22/02:30am -0.1 -3.9 -0.5 97 0.1 SSW 9 11 5 6 - - 0.2
22/02:00am -0.1 -3.9 -0.5 97 0.1 SSW 9 9 5 5 - - 0.2
22/01:30am -0.1 -3.5 -0.7 96 0.2 SW 7 9 4 5 - - 0.2
22/01:00am 0.4 -2.4 -0.2 96 0.2 SSW 4 7 2 4 - - 0.2
22/12:30am 0.5 -2.7 -0.2 95 0.3 SSW 6 9 3 5 - - 0.2
22/12:00am 0.9 -2.8 0.0 94 0.3 SSW 9 11 5 6 - - 0.2
 
Date/Time
EST
Temp
°C
App
Temp
°C
Dew
Point
°C
Rel
Hum
%
Delta-T
°C
Wind Press
QNH
hPa
Press
MSL
hPa
Rain since
9am
mm
Dir  Spd
km/h
Gust
km/h
Spd
kts
Gust
kts
21/11:30pm 0.9 -2.4 0.0 94 0.3 SSW 7 9 4 5 - - 0.2
21/11:00pm 0.9 -2.4 -0.2 92 0.4 SSW 7 9 4 5 - - 0.2
21/10:30pm 1.4 -2.3 0.1 91 0.5 SSW 9 11 5 6 - - 0.2
21/10:00pm 1.6 -2.4 0.3 91 0.5 SSW 11 13 6 7 - - 0.2
21/09:30pm 1.1 -2.2 -0.1 92 0.4 SSW 7 9 4 5 - - 0.2
21/09:00pm 1.8 -1.2 0.5 91 0.5 SSW 6 9 3 5 - - 0.2
21/08:30pm 1.6 -1.7 0.3 91 0.5 SSW 7 9 4 5 - - 0.2
21/08:00pm 1.9 -1.4 0.3 89 0.6 S 7 9 4 5 - - 0.2
21/07:30pm 2.4 -0.8 0.8 89 0.6 SSW 7 9 4 5 - - 0.2
21/07:00pm 3.6 0.5 1.6 87 0.8 S 7 9 4 5 - - 0.2
21/06:30pm 4.3 1.5 2.0 85 0.9 SSW 6 7 3 4 - - 0.2
21/06:00pm 4.9 2.4 1.4 78 1.4 WSW 4 6 2 3 - - 0.2
21/05:30pm 8.4 6.5 2.6 67 2.5 W 2 4 1 2 - - 0.2
21/05:00pm 10.3 8.2 3.8 64 2.9 NNE 4 4 2 2 - - 0.2
21/04:30pm 11.9 9.8 3.9 58 3.6 NNE 4 7 2 4 - - 0.2
21/04:00pm 12.5 10.4 3.7 55 4.0 NNE 4 6 2 3 - - 0.2
21/03:30pm 13.2 11.0 3.3 51 4.5 NNW 4 6 2 3 - - 0.2
21/03:00pm 13.5 11.4 4.1 53 4.4 N 4 9 2 5 - - 0.2
21/02:30pm 13.2 10.8 4.4 55 4.1 NNE 6 7 3 4 - - 0.2
21/02:00pm 13.2 11.0 5.1 58 3.8 N 6 11 3 6 - - 0.2
21/01:30pm 12.9 10.7 5.1 59 3.7 NNW 6 11 3 6 - - 0.2
21/01:00pm 12.3 10.0 5.0 61 3.4 N 6 11 3 6 - - 0.2
21/12:30pm 12.2 10.0 5.1 62 3.3 NNW 6 7 3 4 - - 0.2
21/12:00pm 11.7 9.6 5.6 66 2.9 N 6 9 3 5 - - 0.2
21/11:30am 11.0 9.1 5.1 67 2.7 N 4 7 2 4 - - 0.2
21/11:00am 10.4 8.5 4.8 68 2.6 NE 4 6 2 3 - - 0.2
21/10:30am 9.9 9.0 6.1 77 1.8 CALM 0 2 0 1 - - 0.2
21/10:00am 8.3 7.5 6.3 87 0.9 CALM 0 2 0 1 - - 0.2

Other Formats:

Comma delimited format used in spreadsheet applications
http://www.bom.gov.au/fwo/IDV60801/IDV60801.94859.axf

JavaScript Object Notation format (JSON) in row-major order
http://www.bom.gov.au/fwo/IDV60801/IDV60801.94859.json